Aeroporto :
LOGIN :

Iscrizione | Disclaimer

   EN    FR    IT 

 










Sommario :    VFR   VFR Marginale   IFR   IFR Intensivo   IFR Molto Intensivo
Visibilità : 
Base nubi : 
>= 8 km
>= 3000ft
5 / 8 km
1000 / 3000 ft
1500m / 5 km
500 / 1000 ft
800 / 1500m
200 / 500 ft
< 800m
< 200 ft
Simboli :   Temporali  Nebbia  Neve Forte  Precipitazioni Forti  Vento > 20 kt
SIGMETs :   Varie  Temporali  Ghiacco  Turbolenza  Onda orograficha  Ceneri Vulcaniche






- Altitudine del aeroporto : 1306 ft
- Codice IATA : ACH


LSZR - Alten Rhein

ULTIMO METAR :
  • 161020Z 16007KT CAVOK 15/07 Q1018 NOSIG RMK G

METARs OBSOLETI :
  • 160950Z 16007KT CAVOK 15/07 Q1018 NOSIG RMK G
  • 160920Z VRB02KT CAVOK 13/07 Q1018 NOSIG RMK F
  • 160850Z VRB02KT CAVOK 13/07 Q1018 NOSIG RMK F
  • 160820Z 27004KT CAVOK 13/07 Q1019 NOSIG RMK E
  • 160750Z AUTO 17007KT 130V210 CAVOK 13/07 Q1018

TAF TAF LSZR
Valido dal 16 a 09 ore il 16 a 18 ore UTC


160825Z 1609/1618 14005KT CAVOK
ATIS : +41 71 858 51 66



MetMap, La meteo Aeronautica in un colpo d'occhio ! - Copyright ORBIFLY Dicembre 2007 - Disclaimer

ORBIFLY MET'MAP TEAM :

Programmazione e sviluppo : Alexandra Zaïnal
Concezione e sviluppo : Baudouin d'Aumeries
Co-Programmazione e sviluppo : Marc-Olivier Méhu
Supporto tecnico e logistico : Manuel Goepfert
Aiuto per la traduzione : Arnaldo La Scala

Contatto : metmap@orbifly.com




FONTI E CREDITI :

   NOAA